sensor_id;sensor_type;location;lat;lon;timestamp;P1;durP1;ratioP1;P2;durP2;ratioP2
19863;SDS011;10094;48.820;9.226;2024-02-23T01:26:38;3.00;;;1.85;;
19863;SDS011;10094;48.820;9.226;2024-02-23T01:33:24;4.05;;;1.02;;
19863;SDS011;10094;48.820;9.226;2024-02-23T01:40:07;2.13;;;0.90;;
19863;SDS011;10094;48.820;9.226;2024-02-23T01:46:50;2.20;;;1.30;;
19863;SDS011;10094;48.820;9.226;2024-02-23T01:53:32;2.67;;;0.95;;
19863;SDS011;10094;48.820;9.226;2024-02-23T02:00:15;3.22;;;1.15;;
19863;SDS011;10094;48.820;9.226;2024-02-23T02:07:06;1.55;;;1.10;;
19863;SDS011;10094;48.820;9.226;2024-02-23T02:13:48;1.83;;;0.85;;
19863;SDS011;10094;48.820;9.226;2024-02-23T02:20:32;2.95;;;1.10;;
19863;SDS011;10094;48.820;9.226;2024-02-23T02:27:15;1.63;;;1.10;;
19863;SDS011;10094;48.820;9.226;2024-02-23T02:33:58;1.92;;;1.27;;
19863;SDS011;10094;48.820;9.226;2024-02-23T02:40:40;1.85;;;1.25;;
19863;SDS011;10094;48.820;9.226;2024-02-23T02:47:23;1.38;;;0.88;;
19863;SDS011;10094;48.820;9.226;2024-02-23T02:54:06;2.13;;;1.30;;
19863;SDS011;10094;48.820;9.226;2024-02-23T03:00:48;2.00;;;1.40;;
19863;SDS011;10094;48.820;9.226;2024-02-23T03:07:30;2.42;;;1.30;;
19863;SDS011;10094;48.820;9.226;2024-02-23T03:14:13;3.63;;;1.10;;
19863;SDS011;10094;48.820;9.226;2024-02-23T03:20:55;2.20;;;1.30;;
19863;SDS011;10094;48.820;9.226;2024-02-23T03:27:38;1.13;;;1.00;;
19863;SDS011;10094;48.820;9.226;2024-02-23T03:34:20;2.15;;;1.00;;
19863;SDS011;10094;48.820;9.226;2024-02-23T03:41:03;1.65;;;1.08;;
19863;SDS011;10094;48.820;9.226;2024-02-23T03:47:45;1.58;;;1.17;;
19863;SDS011;10094;48.820;9.226;2024-02-23T03:54:28;2.70;;;1.08;;
19863;SDS011;10094;48.820;9.226;2024-02-23T04:01:11;1.25;;;0.80;;
19863;SDS011;10094;48.820;9.226;2024-02-23T04:07:53;1.88;;;1.02;;
19863;SDS011;10094;48.820;9.226;2024-02-23T04:14:35;1.27;;;1.10;;
19863;SDS011;10094;48.820;9.226;2024-02-23T04:21:18;3.13;;;1.10;;
19863;SDS011;10094;48.820;9.226;2024-02-23T04:28:01;2.83;;;1.05;;
19863;SDS011;10094;48.820;9.226;2024-02-23T04:34:44;1.42;;;1.02;;
19863;SDS011;10094;48.820;9.226;2024-02-23T04:41:26;4.53;;;1.25;;
19863;SDS011;10094;48.820;9.226;2024-02-23T04:48:08;2.50;;;1.13;;
19863;SDS011;10094;48.820;9.226;2024-02-23T04:54:51;1.30;;;0.80;;
19863;SDS011;10094;48.820;9.226;2024-02-23T05:01:36;4.25;;;1.10;;
19863;SDS011;10094;48.820;9.226;2024-02-23T05:08:20;2.95;;;1.30;;
19863;SDS011;10094;48.820;9.226;2024-02-23T05:15:03;3.53;;;1.00;;
19863;SDS011;10094;48.820;9.226;2024-02-23T05:21:45;1.17;;;0.88;;
19863;SDS011;10094;48.820;9.226;2024-02-23T05:28:28;2.53;;;1.38;;
19863;SDS011;10094;48.820;9.226;2024-02-23T05:35:11;4.45;;;1.17;;
19863;SDS011;10094;48.820;9.226;2024-02-23T05:41:54;1.00;;;0.90;;
19863;SDS011;10094;48.820;9.226;2024-02-23T05:48:37;4.35;;;1.45;;
19863;SDS011;10094;48.820;9.226;2024-02-23T05:55:19;2.58;;;1.35;;
19863;SDS011;10094;48.820;9.226;2024-02-23T06:02:02;2.53;;;1.25;;
19863;SDS011;10094;48.820;9.226;2024-02-23T06:08:45;2.83;;;1.05;;
19863;SDS011;10094;48.820;9.226;2024-02-23T06:15:28;4.25;;;1.25;;
19863;SDS011;10094;48.820;9.226;2024-02-23T06:22:10;2.15;;;1.27;;
19863;SDS011;10094;48.820;9.226;2024-02-23T06:28:53;5.40;;;2.80;;
19863;SDS011;10094;48.820;9.226;2024-02-23T06:35:37;4.78;;;2.40;;
19863;SDS011;10094;48.820;9.226;2024-02-23T06:42:20;6.07;;;2.92;;
19863;SDS011;10094;48.820;9.226;2024-02-23T06:49:03;9.80;;;2.80;;
19863;SDS011;10094;48.820;9.226;2024-02-23T06:55:46;6.93;;;2.88;;
19863;SDS011;10094;48.820;9.226;2024-02-23T07:02:29;10.23;;;3.28;;
19863;SDS011;10094;48.820;9.226;2024-02-23T07:09:13;10.68;;;2.80;;
19863;SDS011;10094;48.820;9.226;2024-02-23T07:15:56;4.30;;;2.55;;
19863;SDS011;10094;48.820;9.226;2024-02-23T07:22:45;7.00;;;2.33;;
19863;SDS011;10094;48.820;9.226;2024-02-23T07:29:27;6.10;;;2.08;;
19863;SDS011;10094;48.820;9.226;2024-02-23T07:36:14;3.60;;;1.83;;
19863;SDS011;10094;48.820;9.226;2024-02-23T07:42:57;3.03;;;1.35;;
19863;SDS011;10094;48.820;9.226;2024-02-23T07:49:39;2.58;;;1.25;;
19863;SDS011;10094;48.820;9.226;2024-02-23T07:56:22;3.33;;;1.40;;
19863;SDS011;10094;48.820;9.226;2024-02-23T08:03:05;3.80;;;1.27;;
19863;SDS011;10094;48.820;9.226;2024-02-23T08:09:50;10.50;;;1.75;;
19863;SDS011;10094;48.820;9.226;2024-02-23T08:16:33;1.92;;;1.40;;
19863;SDS011;10094;48.820;9.226;2024-02-23T08:23:16;2.90;;;1.30;;
19863;SDS011;10094;48.820;9.226;2024-02-23T08:30:00;2.70;;;1.23;;
19863;SDS011;10094;48.820;9.226;2024-02-23T08:36:44;3.63;;;1.42;;
19863;SDS011;10094;48.820;9.226;2024-02-23T08:43:27;4.13;;;1.40;;
19863;SDS011;10094;48.820;9.226;2024-02-23T08:50:11;3.25;;;1.58;;
19863;SDS011;10094;48.820;9.226;2024-02-23T08:56:53;1.73;;;1.50;;
19863;SDS011;10094;48.820;9.226;2024-02-23T09:03:37;4.22;;;1.40;;
19863;SDS011;10094;48.820;9.226;2024-02-23T09:10:20;3.45;;;1.35;;
19863;SDS011;10094;48.820;9.226;2024-02-23T09:17:02;4.85;;;1.70;;
19863;SDS011;10094;48.820;9.226;2024-02-23T09:23:46;3.72;;;2.35;;
19863;SDS011;10094;48.820;9.226;2024-02-23T09:30:38;2.17;;;1.42;;
19863;SDS011;10094;48.820;9.226;2024-02-23T09:37:22;6.60;;;1.60;;
19863;SDS011;10094;48.820;9.226;2024-02-23T09:44:05;4.60;;;2.08;;
19863;SDS011;10094;48.820;9.226;2024-02-23T09:50:54;3.92;;;1.50;;
19863;SDS011;10094;48.820;9.226;2024-02-23T09:57:40;6.07;;;1.75;;
19863;SDS011;10094;48.820;9.226;2024-02-23T10:04:24;3.53;;;1.40;;
19863;SDS011;10094;48.820;9.226;2024-02-23T10:11:09;2.85;;;1.38;;
19863;SDS011;10094;48.820;9.226;2024-02-23T10:17:52;2.42;;;1.10;;
19863;SDS011;10094;48.820;9.226;2024-02-23T10:24:36;3.25;;;1.63;;
19863;SDS011;10094;48.820;9.226;2024-02-23T10:31:22;4.57;;;2.17;;
19863;SDS011;10094;48.820;9.226;2024-02-23T10:38:07;2.63;;;1.40;;
19863;SDS011;10094;48.820;9.226;2024-02-23T10:44:53;1.85;;;1.00;;
19863;SDS011;10094;48.820;9.226;2024-02-23T10:51:37;2.40;;;1.25;;
19863;SDS011;10094;48.820;9.226;2024-02-23T10:58:22;1.92;;;1.38;;
19863;SDS011;10094;48.820;9.226;2024-02-23T11:05:07;4.63;;;1.65;;
19863;SDS011;10094;48.820;9.226;2024-02-23T11:11:58;3.55;;;1.50;;
19863;SDS011;10094;48.820;9.226;2024-02-23T11:18:47;3.72;;;1.80;;
19863;SDS011;10094;48.820;9.226;2024-02-23T11:25:30;4.63;;;1.65;;
19863;SDS011;10094;48.820;9.226;2024-02-23T11:32:17;3.28;;;1.35;;
19863;SDS011;10094;48.820;9.226;2024-02-23T11:39:06;5.15;;;1.48;;
19863;SDS011;10094;48.820;9.226;2024-02-23T11:45:57;3.88;;;1.90;;
19863;SDS011;10094;48.820;9.226;2024-02-23T11:52:41;9.48;;;2.10;;
19863;SDS011;10094;48.820;9.226;2024-02-23T11:59:24;4.60;;;1.70;;
19863;SDS011;10094;48.820;9.226;2024-02-23T12:06:08;8.88;;;1.77;;
19863;SDS011;10094;48.820;9.226;2024-02-23T12:12:58;4.65;;;1.80;;
19863;SDS011;10094;48.820;9.226;2024-02-23T12:19:46;2.33;;;1.55;;
19863;SDS011;10094;48.820;9.226;2024-02-23T12:26:28;6.80;;;1.60;;
19863;SDS011;10094;48.820;9.226;2024-02-23T12:33:12;5.35;;;2.03;;
19863;SDS011;10094;48.820;9.226;2024-02-23T12:40:16;4.93;;;1.60;;
19863;SDS011;10094;48.820;9.226;2024-02-23T12:47:15;4.50;;;1.80;;
19863;SDS011;10094;48.820;9.226;2024-02-23T12:53:59;3.65;;;1.80;;
19863;SDS011;10094;48.820;9.226;2024-02-23T13:00:46;3.78;;;1.58;;
19863;SDS011;10094;48.820;9.226;2024-02-23T13:07:37;5.05;;;2.05;;
19863;SDS011;10094;48.820;9.226;2024-02-23T13:14:26;4.95;;;1.60;;
19863;SDS011;10094;48.820;9.226;2024-02-23T13:21:13;4.45;;;1.55;;
19863;SDS011;10094;48.820;9.226;2024-02-23T13:27:56;7.45;;;1.73;;
19863;SDS011;10094;48.820;9.226;2024-02-23T13:34:44;9.77;;;1.88;;
19863;SDS011;10094;48.820;9.226;2024-02-23T13:41:28;3.25;;;1.50;;
19863;SDS011;10094;48.820;9.226;2024-02-23T13:48:13;3.00;;;1.77;;
19863;SDS011;10094;48.820;9.226;2024-02-23T13:54:59;3.90;;;1.77;;
19863;SDS011;10094;48.820;9.226;2024-02-23T14:01:42;5.75;;;2.40;;
19863;SDS011;10094;48.820;9.226;2024-02-23T14:08:26;6.38;;;2.50;;
19863;SDS011;10094;48.820;9.226;2024-02-23T14:15:09;5.75;;;1.92;;
19863;SDS011;10094;48.820;9.226;2024-02-23T14:21:53;3.88;;;1.83;;
19863;SDS011;10094;48.820;9.226;2024-02-23T14:28:35;4.85;;;2.10;;
19863;SDS011;10094;48.820;9.226;2024-02-23T14:35:19;13.57;;;2.30;;
19863;SDS011;10094;48.820;9.226;2024-02-23T14:42:02;4.45;;;1.60;;
19863;SDS011;10094;48.820;9.226;2024-02-23T14:48:46;6.40;;;1.95;;
19863;SDS011;10094;48.820;9.226;2024-02-23T14:55:30;7.18;;;2.13;;
19863;SDS011;10094;48.820;9.226;2024-02-23T15:02:15;5.78;;;1.90;;
19863;SDS011;10094;48.820;9.226;2024-02-23T15:09:02;4.57;;;1.88;;
19863;SDS011;10094;48.820;9.226;2024-02-23T15:15:45;8.23;;;2.22;;
19863;SDS011;10094;48.820;9.226;2024-02-23T15:22:28;7.43;;;2.25;;
19863;SDS011;10094;48.820;9.226;2024-02-23T15:29:11;5.95;;;1.67;;
19863;SDS011;10094;48.820;9.226;2024-02-23T15:35:55;4.88;;;2.00;;
19863;SDS011;10094;48.820;9.226;2024-02-23T15:42:37;7.60;;;1.90;;
19863;SDS011;10094;48.820;9.226;2024-02-23T15:49:20;9.57;;;2.13;;
19863;SDS011;10094;48.820;9.226;2024-02-23T15:56:24;8.32;;;2.90;;
19863;SDS011;10094;48.820;9.226;2024-02-23T16:03:07;8.73;;;2.95;;
19863;SDS011;10094;48.820;9.226;2024-02-23T16:09:50;12.27;;;6.60;;
19863;SDS011;10094;48.820;9.226;2024-02-23T16:16:32;6.75;;;2.88;;
19863;SDS011;10094;48.820;9.226;2024-02-23T16:23:16;6.63;;;2.25;;
19863;SDS011;10094;48.820;9.226;2024-02-23T16:29:58;5.40;;;2.33;;
19863;SDS011;10094;48.820;9.226;2024-02-23T16:36:41;5.05;;;2.10;;
19863;SDS011;10094;48.820;9.226;2024-02-23T16:43:27;5.90;;;3.47;;
19863;SDS011;10094;48.820;9.226;2024-02-23T16:50:09;5.18;;;2.00;;
19863;SDS011;10094;48.820;9.226;2024-02-23T16:56:52;6.53;;;1.80;;
19863;SDS011;10094;48.820;9.226;2024-02-23T17:03:35;8.43;;;3.10;;
19863;SDS011;10094;48.820;9.226;2024-02-23T17:10:18;6.80;;;2.25;;
19863;SDS011;10094;48.820;9.226;2024-02-23T17:17:00;5.28;;;2.60;;
19863;SDS011;10094;48.820;9.226;2024-02-23T17:23:46;5.88;;;2.40;;
19863;SDS011;10094;48.820;9.226;2024-02-23T17:30:28;6.45;;;2.22;;
19863;SDS011;10094;48.820;9.226;2024-02-23T17:37:12;6.93;;;2.38;;
19863;SDS011;10094;48.820;9.226;2024-02-23T17:43:54;5.15;;;2.67;;
19863;SDS011;10094;48.820;9.226;2024-02-23T17:50:37;5.38;;;2.40;;
19863;SDS011;10094;48.820;9.226;2024-02-23T17:57:19;5.28;;;2.67;;
19863;SDS011;10094;48.820;9.226;2024-02-23T18:04:03;7.85;;;2.30;;
19863;SDS011;10094;48.820;9.226;2024-02-23T18:10:46;4.40;;;3.13;;
19863;SDS011;10094;48.820;9.226;2024-02-23T18:17:29;9.57;;;3.08;;
19863;SDS011;10094;48.820;9.226;2024-02-23T18:24:12;6.80;;;2.63;;
19863;SDS011;10094;48.820;9.226;2024-02-23T18:30:56;4.40;;;2.42;;
19863;SDS011;10094;48.820;9.226;2024-02-23T18:37:39;7.43;;;2.90;;
19863;SDS011;10094;48.820;9.226;2024-02-23T18:44:21;6.40;;;2.53;;
19863;SDS011;10094;48.820;9.226;2024-02-23T18:51:05;5.72;;;2.67;;
19863;SDS011;10094;48.820;9.226;2024-02-23T18:57:48;6.32;;;2.40;;
19863;SDS011;10094;48.820;9.226;2024-02-23T19:04:31;6.70;;;2.58;;
19863;SDS011;10094;48.820;9.226;2024-02-23T19:11:14;4.97;;;2.35;;
19863;SDS011;10094;48.820;9.226;2024-02-23T19:17:57;8.70;;;2.50;;
19863;SDS011;10094;48.820;9.226;2024-02-23T19:24:41;6.97;;;3.92;;
19863;SDS011;10094;48.820;9.226;2024-02-23T19:31:24;5.60;;;2.45;;
19863;SDS011;10094;48.820;9.226;2024-02-23T19:38:07;4.65;;;2.40;;
19863;SDS011;10094;48.820;9.226;2024-02-23T19:44:50;9.77;;;4.35;;
19863;SDS011;10094;48.820;9.226;2024-02-23T19:51:36;6.40;;;2.33;;
19863;SDS011;10094;48.820;9.226;2024-02-23T19:58:19;5.40;;;2.47;;
19863;SDS011;10094;48.820;9.226;2024-02-23T20:05:02;5.72;;;2.70;;
19863;SDS011;10094;48.820;9.226;2024-02-23T20:11:45;4.70;;;2.33;;
19863;SDS011;10094;48.820;9.226;2024-02-23T20:18:29;6.00;;;2.80;;
19863;SDS011;10094;48.820;9.226;2024-02-23T20:25:13;5.90;;;2.80;;
19863;SDS011;10094;48.820;9.226;2024-02-23T20:31:56;5.13;;;2.20;;
19863;SDS011;10094;48.820;9.226;2024-02-23T20:38:38;7.03;;;3.05;;
19863;SDS011;10094;48.820;9.226;2024-02-23T20:45:21;5.30;;;2.50;;
19863;SDS011;10094;48.820;9.226;2024-02-23T20:52:04;8.80;;;2.88;;
19863;SDS011;10094;48.820;9.226;2024-02-23T20:58:48;5.93;;;3.53;;
19863;SDS011;10094;48.820;9.226;2024-02-23T21:05:32;8.70;;;3.60;;
19863;SDS011;10094;48.820;9.226;2024-02-23T21:12:17;8.05;;;3.67;;
19863;SDS011;10094;48.820;9.226;2024-02-23T21:19:00;5.97;;;3.63;;
19863;SDS011;10094;48.820;9.226;2024-02-23T21:25:43;7.85;;;3.35;;
19863;SDS011;10094;48.820;9.226;2024-02-23T21:32:26;9.43;;;4.75;;
19863;SDS011;10094;48.820;9.226;2024-02-23T21:39:11;12.15;;;3.80;;
19863;SDS011;10094;48.820;9.226;2024-02-23T21:45:54;6.13;;;3.72;;
19863;SDS011;10094;48.820;9.226;2024-02-23T21:52:37;9.27;;;3.95;;
19863;SDS011;10094;48.820;9.226;2024-02-23T21:59:19;5.18;;;3.33;;
19863;SDS011;10094;48.820;9.226;2024-02-23T22:06:02;10.02;;;3.42;;
19863;SDS011;10094;48.820;9.226;2024-02-23T22:12:45;7.32;;;3.25;;
19863;SDS011;10094;48.820;9.226;2024-02-23T22:19:28;9.95;;;3.92;;
19863;SDS011;10094;48.820;9.226;2024-02-23T22:26:11;9.15;;;4.10;;
19863;SDS011;10094;48.820;9.226;2024-02-23T22:32:53;7.85;;;4.55;;
19863;SDS011;10094;48.820;9.226;2024-02-23T22:39:36;7.55;;;4.63;;
19863;SDS011;10094;48.820;9.226;2024-02-23T22:46:19;9.18;;;3.90;;
19863;SDS011;10094;48.820;9.226;2024-02-23T22:53:02;10.40;;;4.03;;
19863;SDS011;10094;48.820;9.226;2024-02-23T22:59:46;6.93;;;3.00;;
19863;SDS011;10094;48.820;9.226;2024-02-23T23:06:29;5.32;;;3.40;;
19863;SDS011;10094;48.820;9.226;2024-02-23T23:13:16;5.07;;;3.15;;
19863;SDS011;10094;48.820;9.226;2024-02-23T23:19:59;6.78;;;3.30;;
19863;SDS011;10094;48.820;9.226;2024-02-23T23:26:46;6.50;;;3.20;;
19863;SDS011;10094;48.820;9.226;2024-02-23T23:33:29;10.07;;;4.95;;
19863;SDS011;10094;48.820;9.226;2024-02-23T23:40:12;11.10;;;5.35;;
19863;SDS011;10094;48.820;9.226;2024-02-23T23:46:55;8.90;;;3.90;;
19863;SDS011;10094;48.820;9.226;2024-02-23T23:53:38;12.82;;;4.63;;
